Map

Track Data

SID SEASON NUMBER BASIN SUBBASIN NAME ISO_TIME NATURE LAT LON WMO_WIND WMO_PRES WMO_AGENCY TRACK_TYPE DIST2LAND LANDFALL IFLAG USA_AGENCY USA_ATCF_ID USA_LAT USA_LON USA_RECORD USA_STATUS USA_WIND USA_PRES USA_SSHS USA_R34_NE USA_R34_SE USA_R34_SW USA_R34_NW USA_R50_NE USA_R50_SE USA_R50_SW USA_R50_NW USA_R64_NE USA_R64_SE USA_R64_SW USA_R64_NW USA_POCI USA_ROCI USA_RMW USA_EYE TOKYO_LAT TOKYO_LON TOKYO_GRADE TOKYO_WIND TOKYO_PRES TOKYO_R50_DIR TOKYO_R50_LONG TOKYO_R50_SHORT TOKYO_R30_DIR TOKYO_R30_LONG TOKYO_R30_SHORT TOKYO_LAND CMA_LAT CMA_LON CMA_CAT CMA_WIND CMA_PRES HKO_LAT HKO_LON HKO_CAT HKO_WIND HKO_PRES NEWDELHI_LAT NEWDELHI_LON NEWDELHI_GRADE NEWDELHI_WIND NEWDELHI_PRES NEWDELHI_CI NEWDELHI_DP NEWDELHI_POCI REUNION_LAT REUNION_LON REUNION_TYPE REUNION_WIND REUNION_PRES REUNION_TNUM REUNION_CI REUNION_RMW REUNION_R34_NE REUNION_R34_SE REUNION_R34_SW REUNION_R34_NW REUNION_R50_NE REUNION_R50_SE REUNION_R50_SW REUNION_R50_NW REUNION_R64_NE REUNION_R64_SE REUNION_R64_SW REUNION_R64_NW BOM_LAT BOM_LON BOM_TYPE BOM_WIND BOM_PRES BOM_TNUM BOM_CI BOM_RMW BOM_R34_NE BOM_R34_SE BOM_R34_SW BOM_R34_NW BOM_R50_NE BOM_R50_SE BOM_R50_SW BOM_R50_NW BOM_R64_NE BOM_R64_SE BOM_R64_SW BOM_R64_NW BOM_ROCI BOM_POCI BOM_EYE BOM_POS_METHOD BOM_PRES_METHOD NADI_LAT NADI_LON NADI_CAT NADI_WIND NADI_PRES WELLINGTON_LAT WELLINGTON_LON WELLINGTON_WIND WELLINGTON_PRES DS824_LAT DS824_LON DS824_STAGE DS824_WIND DS824_PRES TD9636_LAT TD9636_LON TD9636_STAGE TD9636_WIND TD9636_PRES TD9635_LAT TD9635_LON TD9635_WIND TD9635_PRES TD9635_ROCI NEUMANN_LAT NEUMANN_LON NEUMANN_CLASS NEUMANN_WIND NEUMANN_PRES MLC_LAT MLC_LON MLC_CLASS MLC_WIND MLC_PRES USA_GUST BOM_GUST BOM_GUST_PER REUNION_GUST REUNION_GUST_PER USA_SEAHGT USA_SEARAD_NE USA_SEARAD_SE USA_SEARAD_SW USA_SEARAD_NW STORM_SPEED STORM_DIR
1978043S16072 1978 12 SI MM JACQUELINE 1978-02-12 06:00:00 TS -16.0600 72.3000 20 1003 reunion main 1601 1601 O____O___OO_O_ jtwc_sh SH191978 -16.1000 72.5000 -1 -16.0000 72.0000 2 20 1003 1.50000 1.50000 -16.1000 72.5000 TC 25 -16.1000 72.5000 1 -16.0000 72.0000 TC 25 1003 8 51
1978043S16072 1978 12 SI MM JACQUELINE 1978-02-12 09:00:00 TS -15.8151 72.6123 main 1643 1643 P____P___PP_P_ SH191978 -15.9501 72.7551 -1 -15.6153 72.4255 2 -15.9501 72.7551 TC 25 -15.9450 72.7001 1 -15.6153 72.4255 TC 30 7 52
1978043S16072 1978 12 SI MM JACQUELINE 1978-02-12 12:00:00 TS -15.5984 72.9040 reunion main 1680 1680 O____O___OP_O_ jtwc_sh SH191978 -15.8000 73.0000 -1 -15.3000 72.8000 99 9.90000 -15.8000 73.0000 TC 25 -15.7921 72.9201 1 -15.3000 72.8000 TC 35 7 54
1978043S16072 1978 12 SI MM JACQUELINE 1978-02-12 15:00:00 TS -15.4255 73.1698 main 1718 1718 P____P___PP_P_ SH191978 -15.6499 73.2349 -1 -15.0923 73.0997 99 -15.6499 73.2349 TC 25 -15.6431 73.1800 1 -15.0923 73.0997 TC 35 6 58
1978043S16072 1978 12 SI MM JACQUELINE 1978-02-12 18:00:00 TS -15.2600 73.4600 reunion main 1752 1752 O____O___OO_O_ jtwc_sh SH191978 -15.5000 73.5000 -1 -14.9000 73.4000 99 9.90000 -15.5000 73.5000 TC 25 -15.5000 73.5000 1 -14.9000 73.4000 TC 35 7 62
1978043S16072 1978 12 SI MM JACQUELINE 1978-02-12 21:00:00 TS -15.0914 73.8298 main 1791 1791 P____P___PP_P_ SH191978 -15.3275 73.8351 -1 -14.6277 73.7754 99 -15.3275 73.8351 TC 25 -15.3674 73.8864 1 -14.6277 73.7754 TC 37 8 70
1978043S16072 1978 12 SI MM JACQUELINE 1978-02-13 00:00:00 TS -14.9902 74.2225 reunion main 1835 1835 O____O___OP_O_ jtwc_sh SH191978 -15.2000 74.2000 -1 -14.3000 74.2000 99 9.90000 -15.2000 74.2000 TC 25 -15.2607 74.2901 1 -14.3000 74.2000 TC 40 8 85
1978043S16072 1978 12 SI MM JACQUELINE 1978-02-13 03:00:00 TS -15.0218 74.6185 main 1875 1875 P________PP___ SH191978 -15.1551 74.6099 -1 99 -15.1551 74.6099 TC 25 -15.1986 74.6488 1 TC 7 108
1978043S16072 1978 12 SI MM JACQUELINE 1978-02-13 06:00:00 TS -15.2000 74.9000 24 1000 reunion main 1897 1893 O________OO___ jtwc_sh SH191978 -15.2000 74.9000 -1 -15.2000 74.9000 TC 25 -15.2000 74.9000 1 4 135
1978043S16072 1978 12 SI MM JACQUELINE 1978-02-13 09:00:00 TS -15.3119 74.9135 main 1893 1876 P________PP___ SH191978 -15.3274 74.9100 -1 -15.3274 74.9100 TC 25 -15.2809 74.9205 1 3 197
1978043S16072 1978 12 SI MM JACQUELINE 1978-02-13 12:00:00 TS -15.4749 74.8126 reunion main 1876 1862 O________OP___ jtwc_sh SH191978 -15.5000 74.8000 -1 -15.5000 74.8000 TC 25 -15.4246 74.8379 1 4 210
1978043S16072 1978 12 SI MM JACQUELINE 1978-02-13 15:00:00 TS -15.6303 74.7205 main 1862 1855 P________PP___ SH191978 -15.6425 74.7126 -1 -15.6425 74.7126 TC 25 -15.6060 74.7363 1 3 200
1978043S16072 1978 12 SI MM JACQUELINE 1978-02-13 18:00:00 TS -15.8000 74.7000 reunion main 1855 1851 O________OO___ jtwc_sh SH191978 -15.8000 74.7000 -1 -15.8000 74.7000 TC 25 -15.8000 74.7000 1 4 161
1978043S16072 1978 12 SI MM JACQUELINE 1978-02-13 21:00:00 TS -15.9907 74.8492 main 1858 1858 P________PP___ SH191978 -16.0000 74.8549 -1 -16.0000 74.8549 TC 25 -15.9719 74.8376 1 5 136
1978043S16072 1978 12 SI MM JACQUELINE 1978-02-14 00:00:00 TS -16.1834 75.0841 reunion main 1882 1882 O________OP___ jtwc_sh SH191978 -16.2000 75.1000 -1 -16.2000 75.1000 TC 25 -16.1501 75.0523 1 6 128
1978043S16072 1978 12 SI MM JACQUELINE 1978-02-14 03:00:00 TS -16.3477 75.3336 main 1899 1896 P________PP___ SH191978 -16.3575 75.3425 -1 -16.3575 75.3425 TC 25 -16.3282 75.3158 1 6 123
1978043S16072 1978 12 SI MM JACQUELINE 1978-02-14 06:00:00 TS -16.5000 75.6000 20 reunion main 1924 1924 O________OO___ jtwc_sh SH191978 -16.5000 75.6000 -1 -16.5000 75.6000 TC 25 -16.5000 75.6000 1 6 122
1978043S16072 1978 12 SI MM JACQUELINE 1978-02-14 09:00:00 TS -16.6537 75.8486 main 1939 1939 P________PP___ SH191978 -16.6499 75.8426 -1 -16.6499 75.8426 TC 25 -16.6612 75.8607 1 6 122
1978043S16072 1978 12 SI MM JACQUELINE 1978-02-14 12:00:00 TS -16.8050 76.1117 reunion main 1967 1967 O________OP___ jtwc_sh SH191978 -16.8000 76.1000 -1 -16.8000 76.1000 TC 25 -16.8150 76.1351 1 6 120
1978043S16072 1978 12 SI MM JACQUELINE 1978-02-14 15:00:00 TS -16.9587 76.4056 main 1993 1993 P________PP___ SH191978 -16.9575 76.4000 -1 -16.9575 76.4000 TC 25 -16.9612 76.4169 1 6 118
1978043S16072 1978 12 SI MM JACQUELINE 1978-02-14 18:00:00 TS -17.1000 76.7000 reunion main 2021 2021 O________OO___ jtwc_sh SH191978 -17.1000 76.7000 -1 -17.1000 76.7000 TC 25 -17.1000 76.7000 1 6 115
1978043S16072 1978 12 SI MM JACQUELINE 1978-02-14 21:00:00 TS -17.2052 76.9545 main 2050 2050 P________PP___ SH191978 -17.1999 76.9501 -1 -17.1999 76.9501 TC 25 -17.2157 76.9632 1 5 113
1978043S16072 1978 12 SI MM JACQUELINE 1978-02-15 00:00:00 TS -17.3090 77.2094 reunion main 2068 2068 O________OP___ jtwc_sh SH191978 -17.3000 77.2000 -1 -17.3000 77.2000 TC 25 -17.3272 77.2282 1 6 115
1978043S16072 1978 12 SI MM JACQUELINE 1978-02-15 03:00:00 TS -17.4400 77.4914 main 2097 2094 P________PP___ SH191978 -17.4350 77.4851 -1 -17.4350 77.4851 TC 25 -17.4500 77.5040 1 6 117
1978043S16072 1978 12 SI MM JACQUELINE 1978-02-15 06:00:00 TS -17.6000 77.8000 24 1000 reunion main 2123 2123 O________OO___ jtwc_sh SH191978 -17.6000 77.8000 -1 -17.6000 77.8000 TC 25 -17.6000 77.8000 1 7 119
1978043S16072 1978 12 SI MM JACQUELINE 1978-02-15 09:00:00 TS -17.7874 78.1432 main 2150 2150 P________PP___ SH191978 -17.7850 78.1426 -1 -17.7850 78.1426 TC 25 -17.7924 78.1445 1 8 121
1978043S16072 1978 12 SI MM JACQUELINE 1978-02-15 12:00:00 TS -18.0043 78.5024 reunion main 2188 2188 O________OP___ jtwc_sh SH191978 -18.0000 78.5000 -1 -18.0000 78.5000 TC 25 -18.0128 78.5072 1 8 124
1978043S16072 1978 12 SI MM JACQUELINE 1978-02-15 15:00:00 TS -18.2456 78.8605 main 2225 2224 P________PP___ SH191978 -18.2425 78.8575 -1 -18.2425 78.8575 TC 25 -18.2518 78.8664 1 8 127
1978043S16072 1978 12 SI MM JACQUELINE 1978-02-15 18:00:00 TS -18.5000 79.2000 reunion main 2251 2251 O________OO___ jtwc_sh SH191978 -18.5000 79.2000 -1 -18.5000 79.2000 TC 25 -18.5000 79.2000 1 8 129
1978043S16072 1978 12 SI MM JACQUELINE 1978-02-15 21:00:00 TS -18.7516 79.5134 main 2278 2278 P________PP___ SH191978 -18.7500 79.5226 -1 -18.7500 79.5226 TC 25 -18.7548 79.4951 1 8 132
1978043S16072 1978 12 SI MM JACQUELINE 1978-02-16 00:00:00 TS -19.0049 79.7867 reunion main 2306 2305 O________OP___ jtwc_sh SH191978 -19.0000 79.8000 -1 -19.0000 79.8000 TC 25 -19.0148 79.7600 1 7 137
1978043S16072 1978 12 SI MM JACQUELINE 1978-02-16 03:00:00 TS -19.2608 80.0134 main 2323 2323 P________PP___ SH191978 -19.2574 80.0226 -1 -19.2574 80.0226 TC 25 -19.2674 79.9950 1 6 142
1978043S16072 1978 12 SI MM JACQUELINE 1978-02-16 06:00:00 TS -19.5000 80.2000 28 997 reunion main 2341 2340 O________OO___ jtwc_sh SH191978 -19.5000 80.2000 -1 -19.5000 80.2000 TC 25 -19.5000 80.2000 1 6 144
1978043S16072 1978 12 SI MM JACQUELINE 1978-02-16 09:00:00 TS -19.7074 80.3648 main 2360 2359 P________PP___ SH191978 -19.7150 80.3576 -1 -19.7150 80.3576 TC 25 -19.6923 80.3792 1 5 143
1978043S16072 1978 12 SI MM JACQUELINE 1978-02-16 12:00:00 TS -19.8883 80.5102 reunion main 2368 2368 O________OP___ jtwc_sh SH191978 -19.9000 80.5000 -1 -19.9000 80.5000 TC 25 -19.8648 80.5305 1 4 141
1978043S16072 1978 12 SI MM JACQUELINE 1978-02-16 15:00:00 TS -20.0433 80.6556 main 2388 2387 P________PP___ SH191978 -20.0500 80.6501 -1 -20.0500 80.6501 TC 25 -20.0298 80.6666 1 4 139
1978043S16072 1978 12 SI MM JACQUELINE 1978-02-16 18:00:00 TS -20.2000 80.8000 reunion main 2397 2397 O________OO___ jtwc_sh SH191978 -20.2000 80.8000 -1 -20.2000 80.8000 TC 25 -20.2000 80.8000 1 4 141
1978043S16072 1978 12 SI MM JACQUELINE 1978-02-16 21:00:00 TS -20.3885 80.9554 main 2416 2415 P________PP___ SH191978 -20.3925 80.9500 -1 -20.3925 80.9500 TC 25 -20.3807 80.9662 1 5 143
1978043S16072 1978 12 SI MM JACQUELINE 1978-02-17 00:00:00 TS -20.5900 81.1100 reunion main 2425 2425 O________OP___ jtwc_sh SH191978 -20.6000 81.1000 -1 -20.6000 81.1000 TC 25 -20.5701 81.1299 1 5 143
1978043S16072 1978 12 SI MM JACQUELINE 1978-02-17 03:00:00 TS -20.7815 81.2696 main 2444 2444 P________PP___ SH191978 -20.7850 81.2650 -1 -20.7850 81.2650 TC 25 -20.7744 81.2787 1 5 147
1978043S16072 1978 12 SI MM JACQUELINE 1978-02-17 06:00:00 TS -21.0000 81.4000 reunion main 2454 2453 O________OO___ jtwc_sh SH191978 -21.0000 81.4000 -1 -21.0000 81.4000 TC 25 -21.0000 81.4000 1 5 160
1978043S16072 1978 12 SI MM JACQUELINE 1978-02-17 09:00:00 TS -21.2889 81.4683 main 2463 2462 P________PP___ SH191978 -21.2925 81.4651 -1 -21.2925 81.4651 TC 25 -21.2818 81.4749 1 6 171
1978043S16072 1978 12 SI MM JACQUELINE 1978-02-17 12:00:00 TS -21.5933 81.5076 reunion main 2462 2462 O________OP___ jtwc_sh SH191978 -21.6000 81.5000 -1 -21.6000 81.5000 TC 25 -21.5799 81.5227 1 6 172
1978043S16072 1978 12 SI MM JACQUELINE 1978-02-17 15:00:00 TS -21.8743 81.5531 main 2472 2472 P________PP___ SH191978 -21.8800 81.5500 -1 -21.8800 81.5500 TC 25 -21.8631 81.5592 1 5 170
1978043S16072 1978 12 SI MM JACQUELINE 1978-02-17 18:00:00 TS -22.1000 81.6000 reunion main 2472 2472 O________OO___ jtwc_sh SH191978 -22.1000 81.6000 -1 -22.1000 81.6000 TC 25 -22.1000 81.6000 1 4 166
1978043S16072 1978 12 SI MM JACQUELINE 1978-02-17 21:00:00 TS -22.2317 81.6469 main 2472 2472 P________PP___ SH191978 -22.2225 81.6425 -1 -22.2225 81.6425 TC 25 -22.2503 81.6558 1 2 156
1978043S16072 1978 12 SI MM JACQUELINE 1978-02-18 00:00:00 TS -22.3175 81.7067 reunion main 2482 2482 O________OP___ jtwc_sh SH191978 -22.3000 81.7000 -1 -22.3000 81.7000 TC 25 -22.3524 81.7202 1 2 144
1978043S16072 1978 12 SI MM JACQUELINE 1978-02-18 03:00:00 TS -22.4094 81.7899 main 2493 2493 P________PP___ SH191978 -22.4000 81.7850 -1 -22.4000 81.7850 TC 25 -22.4284 81.7995 1 3 136
1978043S16072 1978 12 SI MM JACQUELINE 1978-02-18 06:00:00 TS -22.5000 81.9000 24 1000 reunion main 2503 2503 O________OO___ jtwc_sh SH191978 -22.5000 81.9000 -1 -22.5000 81.9000 TC 25 -22.5000 81.9000 1 3 130
1978043S16072 1978 12 SI MM JACQUELINE 1978-02-18 09:00:00 TS -22.6014 82.0405 main 2514 2514 P________PP___ SH191978 -22.6000 82.0425 -1 -22.6000 82.0425 TC 25 -22.6041 82.0365 1 3 127
1978043S16072 1978 12 SI MM JACQUELINE 1978-02-18 12:00:00 TS -22.7025 82.1975 reunion main 2535 2535 O________OP___ jtwc_sh SH191978 -22.7000 82.2000 -1 -22.7000 82.2000 TC 25 -22.7076 82.1924 1 4 125
1978043S16072 1978 12 SI MM JACQUELINE 1978-02-18 15:00:00 TS -22.8024 82.3557 main 2555 2555 P________PP___ SH191978 -22.8000 82.3575 -1 -22.8000 82.3575 TC 25 -22.8073 82.3521 1 3 125
1978043S16072 1978 12 SI MM JACQUELINE 1978-02-18 18:00:00 TS -22.9000 82.5000 reunion main 2566 2566 O________OO___ jtwc_sh SH191978 -22.9000 82.5000 -1 -22.9000 82.5000 TC 25 -22.9000 82.5000 1 3 132
1978043S16072 1978 12 SI MM JACQUELINE 1978-02-18 21:00:00 TS -22.9989 82.5950 main 2577 2577 P________PP___ SH191978 -23.0075 82.6075 -1 -23.0075 82.6075 TC 25 -22.9818 82.5700 1 2 139
1978043S16072 1978 12 SI MM JACQUELINE 1978-02-19 00:00:00 TS -23.0856 82.6776 main 2587 2587 O________OP___ jtwc_sh SH191978 -23.1000 82.7000 -1 -23.1000 82.7000 TC 25 -23.0568 82.6329 1 2 136
1978043S16072 1978 12 SI MM JACQUELINE 1978-02-19 03:00:00 TS -23.1477 82.7515 main 2597 2597 P________PP___ SH191978 -23.1574 82.7626 -1 -23.1574 82.7626 TC 25 -23.1285 82.7294 1 2 119
1978043S16072 1978 12 SI MM JACQUELINE 1978-02-19 06:00:00 TS -23.2000 82.9000 main 2608 2608 O________OO___ jtwc_sh SH191978 -23.2000 82.9000 -1 -23.2000 82.9000 TC 25 -23.2000 82.9000 1 5 102
1978043S16072 1978 12 SI MM JACQUELINE 1978-02-19 09:00:00 TS -23.2470 83.2451 main 2639 2639 P________PP___ SH191978 -23.2426 83.2051 -1 -23.2426 83.2051 TC 25 -23.2559 83.3252 1 7 98
1978043S16072 1978 12 SI MM JACQUELINE 1978-02-19 12:00:00 TS -23.3046 83.6688 main 2690 2690 O________OP___ jtwc_sh SH191978 -23.3000 83.6000 -1 -23.3000 83.6000 TC 25 -23.3139 83.8063 1 8 100
1978043S16072 1978 12 SI MM JACQUELINE 1978-02-19 15:00:00 TS -23.3867 84.1246 main 2731 2731 P________PP___ SH191978 -23.3853 84.0823 -1 -23.3853 84.0823 TC 25 -23.3897 84.2092 1 7 106
1978043S16072 1978 12 SI MM JACQUELINE 1978-02-19 18:00:00 TS -23.5000 84.4000 main 2762 2753 O________OO___ jtwc_sh SH191978 -23.5000 84.4000 -1 -23.5000 84.4000 TC 25 -23.5000 84.4000 1 3 143
1978043S16072 1978 12 SI MM JACQUELINE 1978-02-19 21:00:00 TS -23.6370 84.3318 main 2753 2723 P________PP___ SH191978 -23.6269 84.3573 -1 -23.6269 84.3573 TC 25 -23.6570 84.2809 1 5 231
1978043S16072 1978 12 SI MM JACQUELINE 1978-02-20 00:00:00 TS -23.8174 83.9669 main 2723 2664 O________OP___ jtwc_sh SH191978 -23.8000 84.0000 -1 -23.8000 84.0000 TC 25 -23.8521 83.9007 1 10 245
1978043S16072 1978 12 SI MM JACQUELINE 1978-02-20 03:00:00 TS -24.0460 83.3888 main 2664 2595 P________PP___ SH191978 -24.0335 83.4108 -1 -24.0335 83.4108 TC 25 -24.0711 83.3449 1 13 247
1978043S16072 1978 12 SI MM JACQUELINE 1978-02-20 06:00:00 TS -24.3000 82.7000 main 2595 O________OO___ jtwc_sh SH191978 -24.3000 82.7000 -1 -24.3000 82.7000 TC 25 -24.3000 82.7000 1 14 248

About IBTrACS Database

This database is a web-friendly format of International Best Track Archive for Climate Stewardship (IBTrACS), a global best track data archive curated by NOAA dating back to 1842.

Updated: 2021-10-08